Main page
METAR-TAF:

METAR-TAF

Airports :

Kirkwall Airport

Kirkwall, Scotland

latitude: 58-57N, longitude: 002-54W, elevation: 21 m

Current weather observation

The report was made 34 minutes ago, at 17:20 UTC
Wind 17 kt from the West/Southwest
Temperature 6°C
Humidity 81%
Pressure 980 hPa
Visibility 10 km or more
Few clouds at a height of 2500 ft

METAR: EGPA 211720Z 25017KT 9999 FEW025 06/03 Q0980

Time: 17:54 (17:54 UTC)

Forecast

The report was made 55 minutes ago, at 16:59 UTC
Forecast valid from 21 at 18 UTC to 22 at 03 UTC
Wind 18 kt from the West with gusts up to 28 kt
Visibility 10 km or more
Few clouds at a height of 2000 ft
Becoming
from 21 at 18 UTC to 21 at 21 UTC
Wind 20 kt from the Southwest with gusts up to 32 kt
Probability 40% :
Temporary
from 21 at 20 UTC to 22 at 03 UTC
Visibility: 6000 m
rain showers
Becoming
from 22 at 00 UTC to 22 at 03 UTC
Wind 12 kt from the South

TAF: EGPA 211659Z 2118/2203 26018G28KT 9999 FEW020 BECMG 2118/2121 23020G32KT PROB40 TEMPO 2120/2203 6000 SHRA BECMG 2200/2203 18012KT

Weather observations and forecasts of more than 4000 airports (METAR and TAF reports).

The available stations are represented by yellow and red dots on the map.

Hover mouse over dot to see the name of the station.

Then click to see weather observations and forecasts.

To change the map : click on the green buttons with a black cross to zoom in, on the green button with a dash to zoom out, or on the green arrows for adjacent maps.


METAR-TAF: